createdAt,value
2018-03-21T00:01:55.005Z,3.69
2018-03-21T00:04:23.263Z,3.59
2018-03-21T00:06:51.540Z,3.30
2018-03-21T00:09:19.837Z,3.30
2018-03-21T00:11:48.070Z,3.30
2018-03-21T00:14:16.335Z,3.30
2018-03-21T00:16:44.591Z,3.33
2018-03-21T00:19:13.166Z,3.34
2018-03-21T00:21:41.431Z,3.40
2018-03-21T00:24:09.699Z,3.42
2018-03-21T00:26:37.963Z,3.34
2018-03-21T00:29:06.214Z,3.47
2018-03-21T00:31:34.478Z,3.33
2018-03-21T00:34:02.740Z,3.31
2018-03-21T00:36:31.005Z,3.48
2018-03-21T00:38:59.270Z,3.45
2018-03-21T00:41:27.535Z,3.39
2018-03-21T00:43:55.799Z,3.30
2018-03-21T00:46:24.060Z,3.16
2018-03-21T00:48:52.323Z,3.18
2018-03-21T00:51:20.587Z,3.08
2018-03-21T00:53:48.859Z,3.09
2018-03-21T00:56:17.134Z,3.18
2018-03-21T00:58:45.391Z,3.33
2018-03-21T01:04:11.145Z,3.21
2018-03-21T01:06:39.417Z,3.36
2018-03-21T01:09:07.689Z,3.12
2018-03-21T01:11:35.973Z,3.10
2018-03-21T01:14:04.245Z,3.13
2018-03-21T01:16:32.521Z,3.15
2018-03-21T01:19:00.803Z,3.15
2018-03-21T01:21:29.086Z,3.07
2018-03-21T01:23:57.361Z,3.22
2018-03-21T01:26:25.650Z,3.10
2018-03-21T01:28:53.931Z,3.10
2018-03-21T01:31:22.208Z,3.06
2018-03-21T01:33:50.484Z,3.17
2018-03-21T01:36:18.767Z,2.95
2018-03-21T01:38:47.043Z,2.86
2018-03-21T01:41:15.314Z,2.94
2018-03-21T01:43:43.596Z,2.85
2018-03-21T01:46:11.867Z,3.00
2018-03-21T01:48:40.148Z,3.11
2018-03-21T01:51:08.429Z,3.11
2018-03-21T01:53:36.697Z,3.04
2018-03-21T01:56:04.989Z,2.94
2018-03-21T01:58:33.259Z,2.96
2018-03-21T02:01:01.537Z,3.02
2018-03-21T02:03:29.816Z,2.92
2018-03-21T02:05:58.093Z,2.80
2018-03-21T02:08:26.369Z,2.78
2018-03-21T02:10:54.654Z,2.78
2018-03-21T02:13:22.933Z,2.68
2018-03-21T02:15:51.194Z,2.70
2018-03-21T02:18:19.475Z,2.75
2018-03-21T02:20:47.741Z,2.88
2018-03-21T02:23:16.020Z,2.80
2018-03-21T02:25:44.294Z,2.63
2018-03-21T02:28:12.574Z,2.61
2018-03-21T02:30:40.866Z,2.61
2018-03-21T02:33:09.125Z,2.80
2018-03-21T02:35:37.405Z,2.68
2018-03-21T02:38:05.670Z,2.66
2018-03-21T02:40:33.949Z,2.55
2018-03-21T02:43:21.964Z,2.57
2018-03-21T02:45:50.284Z,2.58
2018-03-21T02:48:18.514Z,2.38
2018-03-21T02:50:46.793Z,2.43
2018-03-21T02:53:15.063Z,2.58
2018-03-21T02:55:43.342Z,2.42
2018-03-21T02:58:11.609Z,2.29
2018-03-21T03:00:41.106Z,2.28
2018-03-21T03:03:09.382Z,2.27
2018-03-21T03:05:37.705Z,2.13
2018-03-21T03:08:05.952Z,2.07
2018-03-21T03:10:34.215Z,2.08
2018-03-21T03:13:02.488Z,2.11
2018-03-21T03:15:30.753Z,2.12
2018-03-21T03:17:59.040Z,2.18
2018-03-21T03:20:27.305Z,2.16
2018-03-21T03:22:55.593Z,2.19
2018-03-21T03:25:23.868Z,2.08
2018-03-21T03:27:52.158Z,2.03
2018-03-21T03:30:20.424Z,2.10
2018-03-21T03:32:48.698Z,2.19
2018-03-21T03:35:16.982Z,2.15
2018-03-21T03:37:45.253Z,2.14
2018-03-21T03:40:13.530Z,2.21
2018-03-21T03:42:41.798Z,2.10
2018-03-21T03:45:10.082Z,2.13
2018-03-21T03:47:38.354Z,2.08
2018-03-21T03:50:06.649Z,1.84
2018-03-21T03:52:34.926Z,1.91
2018-03-21T03:55:03.201Z,1.97
2018-03-21T03:57:31.485Z,2.08
2018-03-21T03:59:59.765Z,1.97
2018-03-21T04:02:28.049Z,1.88
2018-03-21T04:04:56.319Z,1.77
2018-03-21T04:07:24.598Z,1.94
2018-03-21T04:09:52.869Z,1.95
2018-03-21T04:12:21.172Z,1.81
2018-03-21T04:14:49.470Z,1.88
2018-03-21T04:17:17.746Z,1.89
2018-03-21T04:19:46.022Z,1.89
2018-03-21T04:22:14.292Z,1.87
2018-03-21T04:24:42.577Z,1.68
2018-03-21T04:27:10.848Z,1.59
2018-03-21T04:29:39.130Z,1.66
2018-03-21T04:32:07.397Z,1.64
2018-03-21T04:34:35.696Z,1.65
2018-03-21T04:37:03.973Z,1.69
2018-03-21T04:39:32.248Z,1.47
2018-03-21T04:42:00.524Z,1.45
2018-03-21T04:44:39.007Z,1.50
2018-03-21T04:47:08.946Z,1.47
2018-03-21T04:49:37.213Z,1.41
2018-03-21T04:52:05.492Z,1.63
2018-03-21T04:54:33.769Z,1.58
2018-03-21T04:57:02.303Z,1.55
2018-03-21T04:59:30.596Z,1.61
2018-03-21T05:01:58.861Z,1.60
2018-03-21T05:04:27.143Z,1.57
2018-03-21T05:06:55.405Z,1.65
2018-03-21T05:09:23.681Z,1.59
2018-03-21T05:11:51.957Z,1.60
2018-03-21T05:14:20.237Z,1.67
2018-03-21T05:16:48.513Z,1.67
2018-03-21T05:19:16.802Z,1.73
2018-03-21T05:21:45.078Z,1.66
2018-03-21T05:24:13.354Z,1.55
2018-03-21T05:26:41.642Z,1.43
2018-03-21T05:29:09.913Z,1.62
2018-03-21T05:31:38.199Z,1.35
2018-03-21T05:34:06.482Z,1.56
2018-03-21T05:36:34.769Z,1.57
2018-03-21T05:39:03.033Z,1.50
2018-03-21T05:41:33.301Z,1.50
2018-03-21T05:44:01.561Z,1.25
2018-03-21T05:46:29.836Z,1.50
2018-03-21T05:48:58.557Z,1.51
2018-03-21T05:51:26.831Z,1.61
2018-03-21T05:53:55.969Z,1.43
2018-03-21T05:56:24.245Z,1.40
2018-03-21T05:58:52.530Z,1.61
2018-03-21T06:01:20.805Z,1.67
2018-03-21T06:03:49.097Z,1.62
2018-03-21T06:06:17.365Z,1.59
2018-03-21T06:08:45.694Z,1.70
2018-03-21T06:11:13.917Z,1.71
2018-03-21T06:13:42.189Z,1.77
2018-03-21T06:16:10.487Z,1.72
2018-03-21T06:18:38.760Z,1.88
2018-03-21T06:21:07.050Z,1.89
2018-03-21T06:23:35.322Z,1.88
2018-03-21T06:26:03.617Z,2.08
2018-03-21T06:28:31.894Z,2.28
2018-03-21T06:31:00.181Z,2.29
2018-03-21T06:33:28.468Z,2.57
2018-03-21T06:35:56.761Z,2.66
2018-03-21T06:38:25.033Z,3.22
2018-03-21T06:40:53.313Z,3.41
2018-03-21T06:43:21.602Z,3.26
2018-03-21T06:45:49.931Z,3.43
2018-03-21T06:48:20.156Z,3.58
2018-03-21T06:50:48.428Z,3.77
2018-03-21T06:53:16.705Z,4.15
2018-03-21T06:55:45.944Z,4.35
2018-03-21T06:58:14.342Z,5.41
2018-03-21T07:00:42.641Z,5.59
2018-03-21T07:03:10.913Z,7.01
2018-03-21T07:05:39.202Z,7.20
2018-03-21T07:08:20.893Z,7.54
2018-03-21T07:10:49.199Z,7.44
2018-03-21T07:13:36.441Z,8.44
2018-03-21T07:16:22.456Z,8.80
2018-03-21T07:18:50.747Z,8.68
2018-03-21T07:21:19.028Z,9.62
2018-03-21T07:23:51.904Z,8.74
2018-03-21T07:26:20.207Z,8.94
2018-03-21T07:28:48.492Z,10.00
2018-03-21T07:31:16.770Z,9.12
2018-03-21T07:33:45.058Z,9.56
2018-03-21T07:36:13.342Z,10.38
2018-03-21T07:38:41.634Z,10.60
2018-03-21T07:41:09.932Z,9.44
2018-03-21T07:43:38.225Z,8.91
2018-03-21T07:46:07.517Z,10.06
2018-03-21T07:48:36.745Z,9.98
2018-03-21T07:51:06.970Z,9.61
2018-03-21T07:53:35.257Z,11.64
2018-03-21T07:56:03.545Z,11.73
2018-03-21T07:58:31.825Z,10.04
2018-03-21T08:01:01.037Z,9.46
2018-03-21T08:03:29.321Z,10.46
2018-03-21T08:05:57.620Z,10.26
2018-03-21T08:08:25.925Z,10.72
2018-03-21T08:10:54.329Z,11.49
2018-03-21T08:13:22.635Z,11.08
2018-03-21T08:15:50.986Z,11.46
2018-03-21T08:18:19.288Z,11.99
2018-03-21T08:20:47.587Z,11.51
2018-03-21T08:23:15.878Z,12.03
2018-03-21T08:25:44.180Z,11.03
2018-03-21T08:28:12.466Z,11.59
2018-03-21T08:30:40.761Z,10.81
2018-03-21T08:33:09.057Z,11.13
2018-03-21T08:35:37.350Z,11.72
2018-03-21T08:38:05.691Z,11.70
2018-03-21T08:40:33.933Z,12.03
2018-03-21T08:43:02.225Z,11.77
2018-03-21T08:45:30.517Z,10.70
2018-03-21T08:47:58.814Z,10.72
2018-03-21T08:50:27.121Z,11.19
2018-03-21T08:52:55.411Z,10.37
2018-03-21T08:55:23.713Z,11.66
2018-03-21T08:57:52.001Z,11.81
2018-03-21T09:00:21.294Z,11.65
2018-03-21T09:02:49.585Z,10.91
2018-03-21T09:05:17.869Z,11.61
2018-03-21T09:07:46.201Z,11.74
2018-03-21T09:10:18.446Z,12.03
2018-03-21T09:12:46.743Z,12.45
2018-03-21T09:15:15.025Z,10.72
2018-03-21T09:17:43.409Z,11.08
2018-03-21T09:20:11.693Z,11.45
2018-03-21T09:22:39.990Z,11.28
2018-03-21T09:25:08.268Z,10.59
2018-03-21T09:27:36.589Z,10.96
2018-03-21T09:30:04.918Z,12.09
2018-03-21T09:32:33.472Z,11.02
2018-03-21T09:35:03.695Z,11.27
2018-03-21T09:37:32.028Z,10.88
2018-03-21T09:40:01.202Z,11.28
2018-03-21T09:42:29.490Z,10.85
2018-03-21T09:44:58.702Z,11.03
2018-03-21T09:47:26.991Z,10.91
2018-03-21T09:49:55.287Z,10.31
2018-03-21T09:52:24.483Z,9.68
2018-03-21T09:54:52.778Z,9.34
2018-03-21T09:57:22.001Z,9.59
2018-03-21T10:00:11.604Z,9.12
2018-03-21T10:02:39.885Z,9.44
2018-03-21T10:05:08.175Z,8.63
2018-03-21T10:07:36.464Z,9.19
2018-03-21T10:10:04.757Z,9.55
2018-03-21T10:12:33.036Z,9.78
2018-03-21T10:15:03.257Z,9.16
2018-03-21T10:17:31.533Z,9.34
2018-03-21T10:19:59.829Z,9.08
2018-03-21T10:22:28.114Z,9.38
2018-03-21T10:24:56.399Z,9.11
2018-03-21T10:27:25.001Z,8.53
2018-03-21T10:29:53.294Z,8.42
2018-03-21T10:32:21.621Z,8.59
2018-03-21T10:34:49.901Z,8.69
2018-03-21T10:37:18.294Z,8.43
2018-03-21T10:39:46.582Z,7.85
2018-03-21T10:42:14.878Z,7.56
2018-03-21T10:44:53.480Z,8.03
2018-03-21T10:47:21.732Z,8.19
2018-03-21T10:49:50.352Z,8.29
2018-03-21T10:52:22.152Z,7.82
2018-03-21T10:54:50.436Z,8.11
2018-03-21T10:57:18.788Z,7.98
2018-03-21T10:59:48.018Z,7.70
2018-03-21T11:02:16.306Z,7.57
2018-03-21T11:04:44.604Z,7.46
2018-03-21T11:07:13.122Z,6.79
2018-03-21T11:09:41.401Z,7.31
2018-03-21T11:12:09.721Z,6.97
2018-03-21T11:14:37.997Z,7.30
2018-03-21T11:17:06.282Z,7.50
2018-03-21T11:19:34.588Z,7.66
2018-03-21T11:22:02.875Z,7.66
2018-03-21T11:24:31.169Z,7.54
2018-03-21T11:26:59.457Z,7.44
2018-03-21T11:29:27.745Z,7.08
2018-03-21T11:31:56.025Z,7.43
2018-03-21T11:34:24.320Z,7.43
2018-03-21T11:36:53.577Z,7.35
2018-03-21T11:39:21.864Z,7.68
2018-03-21T11:41:50.150Z,7.63
2018-03-21T11:44:18.441Z,8.11
2018-03-21T11:46:46.746Z,7.95
2018-03-21T11:49:15.050Z,7.44
2018-03-21T11:51:43.337Z,7.36
2018-03-21T11:54:11.645Z,7.35
2018-03-21T11:56:39.929Z,7.94
2018-03-21T11:59:10.234Z,7.61
2018-03-21T12:01:38.521Z,8.16
2018-03-21T12:04:06.801Z,8.27
2018-03-21T12:06:35.097Z,8.44
2018-03-21T12:09:03.389Z,7.95
2018-03-21T12:11:31.703Z,7.62
2018-03-21T12:13:59.969Z,7.95
2018-03-21T12:16:28.272Z,8.10
2018-03-21T12:18:56.563Z,8.03
2018-03-21T12:21:24.848Z,8.16
2018-03-21T12:23:53.142Z,7.96
2018-03-21T12:26:21.438Z,8.02
2018-03-21T12:28:49.724Z,7.76
2018-03-21T12:31:18.013Z,7.65
2018-03-21T12:33:46.301Z,8.28
2018-03-21T12:36:14.605Z,8.35
2018-03-21T12:38:42.889Z,7.87
2018-03-21T12:41:11.194Z,8.15
2018-03-21T12:43:39.482Z,8.39
2018-03-21T12:46:07.773Z,8.04
2018-03-21T12:48:36.060Z,7.55
2018-03-21T12:51:04.343Z,7.78
2018-03-21T12:53:32.627Z,8.35
2018-03-21T12:56:00.939Z,7.72
2018-03-21T12:58:29.269Z,6.98
2018-03-21T13:00:57.556Z,7.85
2018-03-21T13:03:33.798Z,7.83
2018-03-21T13:06:02.081Z,8.39
2018-03-21T13:08:30.378Z,9.14
2018-03-21T13:10:58.652Z,8.14
2018-03-21T13:13:26.949Z,7.94
2018-03-21T13:15:55.246Z,8.81
2018-03-21T13:18:33.477Z,8.75
2018-03-21T13:21:01.752Z,8.11
2018-03-21T13:23:30.072Z,7.96
2018-03-21T13:25:58.368Z,7.86
2018-03-21T13:28:26.653Z,8.59
2018-03-21T13:30:54.952Z,8.64
2018-03-21T13:33:23.239Z,8.14
2018-03-21T13:35:51.546Z,8.51
2018-03-21T13:38:19.829Z,8.39
2018-03-21T13:40:48.129Z,8.83
2018-03-21T13:43:16.414Z,8.96
2018-03-21T13:45:45.737Z,8.83
2018-03-21T13:48:14.009Z,9.11
2018-03-21T13:50:42.458Z,8.92
2018-03-21T13:53:10.754Z,9.49
2018-03-21T13:55:39.048Z,8.52
2018-03-21T13:58:07.334Z,8.89
2018-03-21T14:00:35.620Z,8.68
2018-03-21T14:03:18.975Z,8.03
2018-03-21T14:05:47.307Z,8.36
2018-03-21T14:08:15.577Z,9.08
2018-03-21T14:10:43.897Z,8.26
2018-03-21T14:13:13.157Z,9.13
2018-03-21T14:15:42.890Z,8.38
2018-03-21T14:18:12.369Z,8.19
2018-03-21T14:20:45.938Z,8.21
2018-03-21T14:23:20.221Z,8.16
2018-03-21T14:25:49.540Z,8.71
2018-03-21T14:28:17.838Z,8.81
2018-03-21T14:31:04.884Z,8.46
2018-03-21T14:33:33.221Z,8.90
2018-03-21T14:36:06.719Z,8.44
2018-03-21T14:38:36.037Z,8.74
2018-03-21T14:41:04.343Z,8.41
2018-03-21T14:43:32.639Z,8.44
2018-03-21T14:46:00.952Z,8.36
2018-03-21T14:48:33.784Z,8.82
2018-03-21T14:51:02.086Z,8.50
2018-03-21T14:53:30.371Z,8.48
2018-03-21T14:55:58.647Z,8.24
2018-03-21T14:58:26.944Z,8.56
2018-03-21T15:00:57.256Z,8.02
2018-03-21T15:03:44.844Z,8.40
2018-03-21T15:06:13.057Z,8.87
2018-03-21T15:08:41.356Z,8.80
2018-03-21T15:11:09.641Z,8.16
2018-03-21T15:13:37.959Z,8.20
2018-03-21T15:16:06.250Z,8.55
2018-03-21T15:18:34.686Z,8.21
2018-03-21T15:21:02.968Z,8.49
2018-03-21T15:23:41.502Z,8.39
2018-03-21T15:26:09.793Z,8.02
2018-03-21T15:28:38.077Z,8.11
2018-03-21T15:31:06.375Z,7.86
2018-03-21T15:33:35.730Z,7.90
2018-03-21T15:36:04.017Z,7.46
2018-03-21T15:38:32.305Z,7.73
2018-03-21T15:41:00.619Z,8.11
2018-03-21T15:43:30.845Z,7.68
2018-03-21T15:45:59.143Z,8.16
2018-03-21T15:48:28.461Z,7.40
2018-03-21T15:50:56.769Z,7.90
2018-03-21T15:53:30.773Z,7.73
2018-03-21T15:56:12.766Z,7.47
2018-03-21T15:58:41.061Z,7.37
2018-03-21T16:01:10.439Z,7.68
2018-03-21T16:06:38.428Z,7.04
2018-03-21T16:09:06.725Z,7.55
2018-03-21T16:11:35.099Z,6.98
2018-03-21T16:14:03.385Z,7.45
2018-03-21T16:16:31.685Z,7.69
2018-03-21T16:18:59.974Z,7.35
2018-03-21T16:21:28.279Z,7.27
2018-03-21T16:23:56.566Z,6.93
2018-03-21T16:26:24.870Z,6.93
2018-03-21T16:28:53.161Z,7.21
2018-03-21T16:31:21.463Z,6.98
2018-03-21T16:33:49.773Z,7.26
2018-03-21T16:36:18.066Z,7.19
2018-03-21T16:38:46.367Z,7.29
2018-03-21T16:41:14.654Z,7.18
2018-03-21T16:43:42.947Z,7.11
2018-03-21T16:46:12.241Z,7.32
2018-03-21T16:48:40.545Z,6.90
2018-03-21T16:51:08.833Z,6.71
2018-03-21T16:53:37.119Z,6.85
2018-03-21T16:56:05.438Z,6.74
2018-03-21T16:58:33.727Z,6.77
2018-03-21T17:01:02.034Z,6.83
2018-03-21T17:03:30.317Z,6.59
2018-03-21T17:05:58.606Z,6.89
2018-03-21T17:08:26.895Z,6.83
2018-03-21T17:10:55.221Z,7.04
2018-03-21T17:13:23.515Z,7.19
2018-03-21T17:15:51.797Z,6.98
2018-03-21T17:18:20.113Z,7.13
2018-03-21T17:20:48.389Z,7.25
2018-03-21T17:23:16.676Z,6.97
2018-03-21T17:25:44.965Z,6.95
2018-03-21T17:28:13.265Z,7.16
2018-03-21T17:30:41.569Z,7.29
2018-03-21T17:33:09.847Z,7.37
2018-03-21T17:35:38.162Z,7.34
2018-03-21T17:38:06.442Z,7.39
2018-03-21T17:40:34.725Z,7.29
2018-03-21T17:43:03.025Z,7.26
2018-03-21T17:45:31.310Z,7.33
2018-03-21T17:47:59.633Z,7.26
2018-03-21T17:50:27.885Z,7.35
2018-03-21T17:52:56.191Z,7.18
2018-03-21T17:55:24.481Z,7.23
2018-03-21T17:57:52.785Z,7.30
2018-03-21T18:00:21.092Z,7.15
2018-03-21T18:02:49.409Z,7.16
2018-03-21T18:05:17.706Z,7.26
2018-03-21T18:07:46.094Z,7.26
2018-03-21T18:10:14.382Z,7.19
2018-03-21T18:12:42.661Z,7.08
2018-03-21T18:15:10.963Z,6.98
2018-03-21T18:17:39.255Z,6.82
2018-03-21T18:20:07.538Z,6.78
2018-03-21T18:22:42.948Z,6.83
2018-03-21T18:25:11.222Z,6.91
2018-03-21T18:27:39.509Z,6.83
2018-03-21T18:30:07.799Z,6.84
2018-03-21T18:32:36.118Z,6.88
2018-03-21T18:35:09.330Z,6.61
2018-03-21T18:37:37.638Z,6.55
2018-03-21T18:40:05.925Z,6.59
2018-03-21T18:42:34.208Z,6.33
2018-03-21T18:45:02.505Z,6.48
2018-03-21T18:47:30.792Z,6.40
2018-03-21T18:49:59.072Z,6.36
2018-03-21T18:52:27.363Z,6.38
2018-03-21T18:54:55.681Z,6.34
2018-03-21T18:57:23.965Z,5.96
2018-03-21T18:59:52.285Z,5.71
2018-03-21T19:02:20.554Z,5.74
2018-03-21T19:04:48.838Z,5.90
2018-03-21T19:07:17.133Z,6.00
2018-03-21T19:09:45.413Z,5.69
2018-03-21T19:12:13.708Z,5.75
2018-03-21T19:14:41.994Z,5.79
2018-03-21T19:17:10.306Z,5.61
2018-03-21T19:19:38.646Z,5.25
2018-03-21T19:22:06.931Z,5.42
2018-03-21T19:24:35.176Z,5.30
2018-03-21T19:27:03.473Z,5.40
2018-03-21T19:29:31.770Z,5.13
2018-03-21T19:32:00.058Z,5.40
2018-03-21T19:34:28.377Z,5.00
2018-03-21T19:36:56.656Z,5.00
2018-03-21T19:39:24.940Z,4.66
2018-03-21T19:41:53.233Z,4.69
2018-03-21T19:44:21.526Z,4.86
2018-03-21T19:46:49.822Z,4.54
2018-03-21T19:52:11.455Z,4.64
2018-03-21T19:54:39.803Z,4.57
2018-03-21T19:57:08.150Z,4.27
2018-03-21T19:59:36.429Z,4.24
2018-03-21T20:02:04.716Z,4.59
2018-03-21T20:04:33.023Z,4.47
2018-03-21T20:07:01.307Z,4.28
2018-03-21T20:09:29.600Z,4.52
2018-03-21T20:11:57.889Z,4.27
2018-03-21T20:14:26.188Z,4.22
2018-03-21T20:16:54.478Z,4.17
2018-03-21T20:19:22.766Z,3.96
2018-03-21T20:21:51.060Z,4.37
2018-03-21T20:24:19.348Z,4.44
2018-03-21T20:26:47.637Z,4.03
2018-03-21T20:29:15.913Z,4.26
2018-03-21T20:31:44.209Z,4.19
2018-03-21T20:34:12.498Z,4.17
2018-03-21T20:36:40.856Z,4.03
2018-03-21T20:39:09.071Z,4.17
2018-03-21T20:41:37.362Z,4.08
2018-03-21T20:44:05.656Z,3.98
2018-03-21T20:46:33.948Z,3.78
2018-03-21T20:49:02.241Z,3.78
2018-03-21T20:51:30.540Z,3.78
2018-03-21T20:53:58.834Z,4.04
2018-03-21T20:56:27.113Z,3.89
2018-03-21T20:58:55.401Z,4.13
2018-03-21T21:01:23.689Z,4.13
2018-03-21T21:03:51.977Z,4.15
2018-03-21T21:06:20.277Z,4.16
2018-03-21T21:08:48.590Z,4.21
2018-03-21T21:11:16.869Z,4.42
2018-03-21T21:13:45.159Z,4.36
2018-03-21T21:16:13.449Z,4.06
2018-03-21T21:18:41.756Z,3.88
2018-03-21T21:21:10.037Z,3.94
2018-03-21T21:23:38.334Z,3.97
2018-03-21T21:26:06.643Z,3.92
2018-03-21T21:28:35.913Z,3.83
2018-03-21T21:31:04.195Z,3.88
2018-03-21T21:33:36.397Z,4.03
2018-03-21T21:36:10.058Z,3.87
2018-03-21T21:38:39.300Z,3.91
2018-03-21T21:41:07.565Z,3.98
2018-03-21T21:43:35.851Z,3.96
2018-03-21T21:49:03.944Z,4.09
2018-03-21T21:51:32.245Z,3.71
2018-03-21T21:54:02.494Z,3.81
2018-03-21T21:56:30.789Z,3.93
2018-03-21T21:58:59.066Z,3.94
2018-03-21T22:01:27.348Z,3.75
2018-03-21T22:04:04.120Z,3.87
2018-03-21T22:06:32.411Z,3.61
2018-03-21T22:09:01.767Z,3.57
2018-03-21T22:11:30.041Z,3.54
2018-03-21T22:13:58.345Z,3.38
2018-03-21T22:16:26.628Z,3.48
2018-03-21T22:19:05.325Z,3.55
2018-03-21T22:21:33.629Z,3.52
2018-03-21T22:24:01.913Z,3.48
2018-03-21T22:26:30.213Z,3.47
2018-03-21T22:28:58.500Z,3.39
2018-03-21T22:31:26.796Z,3.38
2018-03-21T22:33:55.083Z,3.50
2018-03-21T22:36:23.380Z,3.45
2018-03-21T22:38:51.660Z,3.57
2018-03-21T22:41:19.957Z,3.53
2018-03-21T22:43:48.247Z,3.25
2018-03-21T22:46:34.347Z,3.08
2018-03-21T22:49:02.645Z,3.30
2018-03-21T22:51:30.924Z,3.60
2018-03-21T22:53:59.209Z,3.42
2018-03-21T22:56:27.485Z,3.27
2018-03-21T22:58:55.797Z,3.27
2018-03-21T23:01:24.086Z,3.49
2018-03-21T23:03:52.401Z,3.34
2018-03-21T23:06:20.691Z,3.16
2018-03-21T23:08:48.977Z,3.42
2018-03-21T23:11:17.290Z,3.19
2018-03-21T23:13:45.565Z,3.24
2018-03-21T23:16:13.868Z,3.12
2018-03-21T23:18:42.150Z,3.42
2018-03-21T23:21:10.439Z,3.16
2018-03-21T23:23:38.721Z,3.02
2018-03-21T23:26:07.010Z,3.14
2018-03-21T23:28:35.293Z,2.95
2018-03-21T23:31:03.577Z,2.82
2018-03-21T23:33:31.873Z,3.07
2018-03-21T23:36:00.160Z,3.02
2018-03-21T23:38:28.451Z,3.13
2018-03-21T23:40:56.750Z,2.92
2018-03-21T23:43:25.046Z,3.07
2018-03-21T23:45:53.342Z,2.92
2018-03-21T23:48:21.637Z,3.05
2018-03-21T23:50:49.926Z,2.66
2018-03-21T23:53:18.222Z,2.71
2018-03-21T23:55:46.530Z,2.64
2018-03-21T23:58:14.810Z,2.64
